createdAt,value
2018-07-23T00:00:18.246Z,15.20
2018-07-23T00:02:46.414Z,21.37
2018-07-23T00:05:14.575Z,14.57
2018-07-23T00:07:42.738Z,14.40
2018-07-23T00:10:10.954Z,17.20
2018-07-23T00:12:39.214Z,14.07
2018-07-23T00:15:07.578Z,14.97
2018-07-23T00:17:35.770Z,13.53
2018-07-23T00:20:04.018Z,16.90
2018-07-23T00:22:32.150Z,13.47
2018-07-23T00:25:00.293Z,15.30
2018-07-23T00:27:28.450Z,22.83
2018-07-23T00:29:56.630Z,18.60
2018-07-23T00:32:24.774Z,16.33
2018-07-23T00:34:52.905Z,19.60
2018-07-23T00:37:21.037Z,15.60
2018-07-23T00:39:49.185Z,15.77
2018-07-23T00:42:17.309Z,16.33
2018-07-23T00:44:45.445Z,16.27
2018-07-23T00:47:13.623Z,15.40
2018-07-23T00:49:41.794Z,15.50
2018-07-23T00:52:09.985Z,17.17
2018-07-23T00:54:38.153Z,16.50
2018-07-23T00:57:06.330Z,15.57
2018-07-23T00:59:34.517Z,18.90
2018-07-23T01:02:02.668Z,17.20
2018-07-23T01:04:30.795Z,21.43
2018-07-23T01:06:59.013Z,27.37
2018-07-23T01:09:27.142Z,30.77
2018-07-23T01:11:55.349Z,34.70
2018-07-23T01:14:23.477Z,23.67
2018-07-23T01:16:51.661Z,15.23
2018-07-23T01:19:19.781Z,16.50
2018-07-23T01:21:47.914Z,16.60
2018-07-23T01:24:16.045Z,26.47
2018-07-23T01:26:44.189Z,36.17
2018-07-23T01:29:12.329Z,21.07
2018-07-23T01:31:40.478Z,23.50
2018-07-23T01:34:11.679Z,18.77
2018-07-23T01:36:39.830Z,24.40
2018-07-23T01:39:08.773Z,33.93
2018-07-23T01:41:36.925Z,32.23
2018-07-23T01:44:05.165Z,30.37
2018-07-23T01:46:33.432Z,34.40
2018-07-23T01:49:01.574Z,33.00
2018-07-23T01:51:29.796Z,25.60
2018-07-23T01:53:57.930Z,25.23
2018-07-23T01:56:26.092Z,21.27
2018-07-23T01:58:54.237Z,20.50
2018-07-23T02:01:22.383Z,21.63
2018-07-23T02:03:50.523Z,26.63
2018-07-23T02:06:18.674Z,41.17
2018-07-23T02:08:46.802Z,29.80
2018-07-23T02:11:14.960Z,26.47
2018-07-23T02:13:43.095Z,35.83
2018-07-23T02:16:11.218Z,48.37
2018-07-23T02:18:39.355Z,28.67
2018-07-23T02:21:07.478Z,36.27
2018-07-23T02:23:35.622Z,18.87
2018-07-23T02:26:03.761Z,26.40
2018-07-23T02:28:31.902Z,21.13
2018-07-23T02:31:00.047Z,26.37
2018-07-23T02:33:27.961Z,28.27
2018-07-23T02:35:56.111Z,40.87
2018-07-23T02:38:24.238Z,28.50
2018-07-23T02:40:52.378Z,27.13
2018-07-23T02:43:20.520Z,28.70
2018-07-23T02:45:48.422Z,27.73
2018-07-23T02:48:16.557Z,33.33
2018-07-23T02:50:44.694Z,28.90
2018-07-23T02:53:12.837Z,32.67
2018-07-23T02:55:40.982Z,32.50
2018-07-23T02:58:09.159Z,25.97
2018-07-23T03:00:37.314Z,27.57
2018-07-23T03:03:05.553Z,27.43
2018-07-23T03:05:33.715Z,29.00
2018-07-23T03:08:01.977Z,31.07
2018-07-23T03:10:30.126Z,27.27
2018-07-23T03:12:58.309Z,30.50
2018-07-23T03:15:26.505Z,25.83
2018-07-23T03:17:54.950Z,28.13
2018-07-23T03:20:23.154Z,35.67
2018-07-23T03:22:51.318Z,34.27
2018-07-23T03:25:19.490Z,30.90
2018-07-23T03:27:47.687Z,31.97
2018-07-23T03:30:15.874Z,31.07
2018-07-23T03:32:44.018Z,35.10
2018-07-23T03:35:12.311Z,33.20
2018-07-23T03:37:40.509Z,29.20
2018-07-23T03:40:08.693Z,29.03
2018-07-23T03:42:36.905Z,25.93
2018-07-23T03:45:05.505Z,27.17
2018-07-23T03:47:33.657Z,35.10
2018-07-23T03:50:01.808Z,26.00
2018-07-23T03:52:29.947Z,26.63
2018-07-23T03:54:58.108Z,29.47
2018-07-23T03:57:26.252Z,26.47
2018-07-23T03:59:54.385Z,29.23
2018-07-23T04:02:22.546Z,36.10
2018-07-23T04:04:50.998Z,30.33
2018-07-23T04:07:19.139Z,33.87
2018-07-23T04:09:47.321Z,41.63
2018-07-23T04:12:15.633Z,30.60
2018-07-23T04:14:43.781Z,37.37
2018-07-23T04:17:11.961Z,37.33
2018-07-23T04:19:40.141Z,34.50
2018-07-23T04:22:08.266Z,35.97
2018-07-23T04:24:36.406Z,30.33
2018-07-23T04:27:04.550Z,32.20
2018-07-23T04:29:32.705Z,32.47
2018-07-23T04:32:00.941Z,34.07
2018-07-23T04:34:29.100Z,32.53
2018-07-23T04:36:57.231Z,31.43
2018-07-23T04:39:25.370Z,26.80
2018-07-23T04:41:53.502Z,27.10
2018-07-23T04:44:21.669Z,30.73
2018-07-23T04:46:49.592Z,26.90
2018-07-23T04:49:17.783Z,25.87
2018-07-23T04:51:45.994Z,24.23
2018-07-23T04:54:14.156Z,25.23
2018-07-23T04:56:42.104Z,21.53
2018-07-23T04:59:10.225Z,25.63
2018-07-23T05:01:38.363Z,22.37
2018-07-23T05:04:06.530Z,20.30
2018-07-23T05:06:34.673Z,20.57
2018-07-23T05:09:02.826Z,24.20
2018-07-23T05:11:31.036Z,22.00
2018-07-23T05:13:59.253Z,24.07
2018-07-23T05:16:27.446Z,25.23
2018-07-23T05:18:55.723Z,23.90
2018-07-23T05:21:23.963Z,21.13
2018-07-23T05:23:52.185Z,23.23
2018-07-23T05:26:20.406Z,23.73
2018-07-23T05:28:48.564Z,20.80
2018-07-23T05:31:16.811Z,22.67
2018-07-23T05:33:45.052Z,26.30
2018-07-23T05:36:13.052Z,21.60
2018-07-23T05:38:41.221Z,21.80
2018-07-23T05:41:09.338Z,24.03
2018-07-23T05:43:37.473Z,24.03
2018-07-23T05:46:05.734Z,22.47
2018-07-23T05:48:33.973Z,22.33
2018-07-23T05:51:02.115Z,23.00
2018-07-23T05:53:30.316Z,23.57
2018-07-23T05:55:58.485Z,26.48
2018-07-23T05:58:26.670Z,23.33
2018-07-23T06:00:54.837Z,22.40
2018-07-23T06:03:23.119Z,23.73
2018-07-23T06:05:51.369Z,24.57
2018-07-23T06:08:19.566Z,25.77
2018-07-23T06:10:47.790Z,23.20
2018-07-23T06:13:15.997Z,24.13
2018-07-23T06:15:44.081Z,23.37
2018-07-23T06:18:12.254Z,26.70
2018-07-23T06:20:40.421Z,24.53
2018-07-23T06:23:08.582Z,26.07
2018-07-23T06:25:36.857Z,26.70
2018-07-23T06:28:05.225Z,26.30
2018-07-23T06:30:33.346Z,28.03
2018-07-23T06:33:01.496Z,29.67
2018-07-23T06:35:29.659Z,32.40
2018-07-23T06:37:57.854Z,28.13
2018-07-23T06:40:25.993Z,34.40
2018-07-23T06:42:54.496Z,29.70
2018-07-23T06:45:22.677Z,30.03
2018-07-23T06:47:51.046Z,28.47
2018-07-23T06:50:19.330Z,27.13
2018-07-23T06:52:47.498Z,29.93
2018-07-23T06:55:15.681Z,29.00
2018-07-23T06:57:43.887Z,28.37
2018-07-23T07:00:12.354Z,27.30
2018-07-23T07:02:40.523Z,26.03
2018-07-23T07:05:08.682Z,25.80
2018-07-23T07:07:36.919Z,26.10
2018-07-23T07:10:05.700Z,27.77
2018-07-23T07:12:33.935Z,25.77
2018-07-23T07:15:02.087Z,25.67
2018-07-23T07:17:30.246Z,25.30
2018-07-23T07:19:58.466Z,26.23
2018-07-23T07:22:26.557Z,25.63
2018-07-23T07:24:54.725Z,24.93
2018-07-23T07:27:22.886Z,26.20
2018-07-23T07:29:51.071Z,25.73
2018-07-23T07:32:19.239Z,24.67
2018-07-23T07:34:47.402Z,24.07
2018-07-23T07:37:15.565Z,26.83
2018-07-23T07:39:43.722Z,29.97
2018-07-23T07:42:11.938Z,27.03
2018-07-23T07:44:41.113Z,25.97
2018-07-23T07:47:09.254Z,24.97
2018-07-23T07:49:37.418Z,25.17
2018-07-23T07:52:05.570Z,25.43
2018-07-23T07:54:33.730Z,23.97
2018-07-23T07:57:01.638Z,23.83
2018-07-23T07:59:29.801Z,24.60
2018-07-23T08:01:57.941Z,23.87
2018-07-23T08:04:26.133Z,24.23
2018-07-23T08:06:54.581Z,24.63
2018-07-23T08:09:22.885Z,24.53
2018-07-23T08:11:51.034Z,23.97
2018-07-23T08:14:19.165Z,23.83
2018-07-23T08:16:47.394Z,24.43
2018-07-23T08:19:15.572Z,25.23
2018-07-23T08:21:43.716Z,25.40
2018-07-23T08:24:11.909Z,25.40
2018-07-23T08:26:40.109Z,24.27
2018-07-23T08:29:08.255Z,27.43
2018-07-23T08:31:36.443Z,27.00
2018-07-23T08:34:04.542Z,26.37
2018-07-23T08:36:32.695Z,24.97
2018-07-23T08:39:01.247Z,25.90
2018-07-23T08:41:29.369Z,23.77
2018-07-23T08:43:57.505Z,22.77
2018-07-23T08:46:25.786Z,24.07
2018-07-23T08:48:53.987Z,22.50
2018-07-23T08:51:22.171Z,24.30
2018-07-23T08:53:50.252Z,23.00
2018-07-23T08:56:18.395Z,23.23
2018-07-23T08:58:46.645Z,22.40
2018-07-23T09:01:14.817Z,22.57
2018-07-23T09:03:42.961Z,23.43
2018-07-23T09:06:11.313Z,21.93
2018-07-23T09:08:39.638Z,19.97
2018-07-23T09:11:07.839Z,21.20
2018-07-23T09:13:35.980Z,18.60
2018-07-23T09:16:04.289Z,18.30
2018-07-23T09:18:32.529Z,20.67
2018-07-23T09:21:00.713Z,19.30
2018-07-23T09:23:28.879Z,20.10
2018-07-23T09:25:57.102Z,18.60
2018-07-23T09:28:25.266Z,18.30
2018-07-23T09:30:54.725Z,19.00
2018-07-23T09:33:23.962Z,18.07
2018-07-23T09:35:52.850Z,18.10
2018-07-23T09:38:22.049Z,18.47
2018-07-23T09:40:50.434Z,18.43
2018-07-23T09:43:18.701Z,17.90
2018-07-23T09:45:46.880Z,18.57
2018-07-23T09:48:15.103Z,18.10
2018-07-23T09:50:43.270Z,18.60
2018-07-23T09:53:11.414Z,17.67
2018-07-23T09:55:39.583Z,17.63
2018-07-23T09:58:07.754Z,18.33
2018-07-23T10:00:41.391Z,18.60
2018-07-23T10:03:09.563Z,17.77
2018-07-23T10:05:37.759Z,19.00
2018-07-23T10:08:05.926Z,19.70
2018-07-23T10:10:34.146Z,17.73
2018-07-23T10:13:02.282Z,15.63
2018-07-23T10:15:30.444Z,15.17
2018-07-23T10:17:58.587Z,15.60
2018-07-23T10:20:26.861Z,15.77
2018-07-23T10:22:55.017Z,16.03
2018-07-23T10:25:23.224Z,16.10
2018-07-23T10:27:51.373Z,17.47
2018-07-23T10:30:19.526Z,16.23
2018-07-23T10:32:47.668Z,15.30
2018-07-23T10:35:15.894Z,13.80
2018-07-23T10:37:44.009Z,15.10
2018-07-23T10:40:12.126Z,15.43
2018-07-23T10:42:40.263Z,16.17
2018-07-23T10:45:08.513Z,15.77
2018-07-23T10:47:36.758Z,14.93
2018-07-23T10:50:04.905Z,15.07
2018-07-23T10:52:33.063Z,15.33
2018-07-23T10:55:01.203Z,16.20
2018-07-23T10:57:29.372Z,15.37
2018-07-23T10:59:57.623Z,15.37
2018-07-23T11:02:25.786Z,15.77
2018-07-23T11:04:53.978Z,15.73
2018-07-23T11:07:22.417Z,16.03
2018-07-23T11:09:50.527Z,16.90
2018-07-23T11:12:18.667Z,15.40
2018-07-23T11:14:46.821Z,15.47
2018-07-23T11:17:15.010Z,13.47
2018-07-23T11:19:43.221Z,14.20
2018-07-23T11:22:11.389Z,13.60
2018-07-23T11:24:45.443Z,12.57
2018-07-23T11:27:07.740Z,12.77
2018-07-23T11:29:35.907Z,12.73
2018-07-23T11:32:04.085Z,14.67
2018-07-23T11:34:32.233Z,17.50
2018-07-23T11:37:00.394Z,17.77
2018-07-23T11:39:28.620Z,17.03
2018-07-23T11:41:56.761Z,18.47
2018-07-23T11:44:24.909Z,15.67
2018-07-23T11:46:53.074Z,23.67
2018-07-23T11:49:21.246Z,16.13
2018-07-23T11:51:49.394Z,15.97
2018-07-23T11:56:59.533Z,15.60
2018-07-23T11:59:27.670Z,14.87
2018-07-23T12:01:55.878Z,12.97
2018-07-23T12:04:25.221Z,12.87
2018-07-23T12:06:53.321Z,14.77
2018-07-23T12:09:21.477Z,14.83
2018-07-23T12:11:49.674Z,17.13
2018-07-23T12:14:17.829Z,13.10
2018-07-23T12:16:45.982Z,14.87
2018-07-23T12:19:14.134Z,14.33
2018-07-23T12:21:42.281Z,16.57
2018-07-23T12:24:10.491Z,12.77
2018-07-23T12:26:38.650Z,12.77
2018-07-23T12:29:06.885Z,12.47
2018-07-23T12:31:35.070Z,12.83
2018-07-23T12:34:03.238Z,13.20
2018-07-23T12:36:31.434Z,13.87
2018-07-23T12:38:59.609Z,10.87
2018-07-23T12:41:27.910Z,11.30
2018-07-23T12:43:56.074Z,13.67
2018-07-23T12:46:24.266Z,13.40
2018-07-23T12:48:52.230Z,13.63
2018-07-23T12:51:20.377Z,12.37
2018-07-23T12:53:48.570Z,12.17
2018-07-23T12:56:16.709Z,11.67
2018-07-23T12:58:44.880Z,12.47
2018-07-23T13:01:13.032Z,12.13
2018-07-23T13:03:41.185Z,11.80
2018-07-23T13:06:09.358Z,11.67
2018-07-23T13:08:37.514Z,12.90
2018-07-23T13:11:05.670Z,11.33
2018-07-23T13:13:33.826Z,11.37
2018-07-23T13:16:01.999Z,11.37
2018-07-23T13:18:31.182Z,10.83
2018-07-23T13:20:59.329Z,11.47
2018-07-23T13:23:27.514Z,10.97
2018-07-23T13:25:55.702Z,10.33
2018-07-23T13:28:23.929Z,9.97
2018-07-23T13:30:52.073Z,9.93
2018-07-23T13:33:20.262Z,10.07
2018-07-23T13:35:48.418Z,9.73
2018-07-23T13:38:16.771Z,9.90
2018-07-23T13:40:44.887Z,11.10
2018-07-23T13:43:13.025Z,9.43
2018-07-23T13:45:41.177Z,9.60
2018-07-23T13:48:09.329Z,10.27
2018-07-23T13:50:37.503Z,10.03
2018-07-23T13:53:05.640Z,9.10
2018-07-23T13:55:33.835Z,9.47
2018-07-23T13:58:02.097Z,10.40
2018-07-23T14:00:30.317Z,10.13
2018-07-23T14:02:58.459Z,9.73
2018-07-23T14:05:26.626Z,9.40
2018-07-23T14:07:54.766Z,8.90
2018-07-23T14:10:22.938Z,10.43
2018-07-23T14:12:51.103Z,9.70
2018-07-23T14:15:19.270Z,9.83
2018-07-23T14:17:47.414Z,9.53
2018-07-23T14:20:15.542Z,9.47
2018-07-23T14:22:43.669Z,9.67
2018-07-23T14:25:11.813Z,9.50
2018-07-23T14:27:40.018Z,9.40
2018-07-23T14:30:08.200Z,9.43
2018-07-23T14:32:36.298Z,10.33
2018-07-23T14:35:04.487Z,9.50
2018-07-23T14:37:33.001Z,10.30
2018-07-23T14:40:01.254Z,8.63
2018-07-23T14:42:29.383Z,9.50
2018-07-23T14:44:57.590Z,9.30
2018-07-23T14:47:25.792Z,8.97
2018-07-23T14:49:53.936Z,9.60
2018-07-23T14:52:22.181Z,9.53
2018-07-23T14:54:50.351Z,8.97
2018-07-23T14:57:18.559Z,10.67
2018-07-23T14:59:46.714Z,9.00
2018-07-23T15:02:14.973Z,10.07
2018-07-23T15:04:43.115Z,9.37
2018-07-23T15:07:11.339Z,8.80
2018-07-23T15:09:39.477Z,9.33
2018-07-23T15:12:07.975Z,8.97
2018-07-23T15:14:36.153Z,9.20
2018-07-23T15:17:08.414Z,9.23
2018-07-23T15:19:36.597Z,9.67
2018-07-23T15:22:05.663Z,9.30
2018-07-23T15:24:33.787Z,10.10
2018-07-23T15:27:02.050Z,10.03
2018-07-23T15:29:30.218Z,9.70
2018-07-23T15:31:58.398Z,9.00
2018-07-23T15:34:26.625Z,11.30
2018-07-23T15:36:54.813Z,9.53
2018-07-23T15:39:22.961Z,10.07
2018-07-23T15:41:51.135Z,9.77
2018-07-23T15:44:19.426Z,9.77
2018-07-23T15:46:47.446Z,9.73
2018-07-23T15:49:15.582Z,10.23
2018-07-23T15:51:43.744Z,9.23
2018-07-23T15:54:12.991Z,9.70
2018-07-23T15:56:41.241Z,11.67
2018-07-23T15:59:09.456Z,10.40
2018-07-23T16:01:37.610Z,9.53
2018-07-23T16:04:05.773Z,9.70
2018-07-23T16:06:33.919Z,9.77
2018-07-23T16:09:02.255Z,10.10
2018-07-23T16:11:30.559Z,10.57
2018-07-23T16:13:58.702Z,10.33
2018-07-23T16:16:26.958Z,13.23
2018-07-23T16:18:55.161Z,11.23
2018-07-23T16:21:23.354Z,11.87
2018-07-23T16:23:51.538Z,11.20
2018-07-23T16:26:19.837Z,10.87
2018-07-23T16:28:47.972Z,11.73
2018-07-23T16:31:16.133Z,12.97
2018-07-23T16:33:44.302Z,11.03
2018-07-23T16:36:12.624Z,10.67
2018-07-23T16:38:40.874Z,11.33
2018-07-23T16:41:09.041Z,10.43
2018-07-23T16:43:37.229Z,9.90
2018-07-23T16:46:05.465Z,10.87
2018-07-23T16:48:33.673Z,10.50
2018-07-23T16:51:01.914Z,11.77
2018-07-23T16:53:30.377Z,13.93
2018-07-23T16:55:59.640Z,12.17
2018-07-23T16:58:27.862Z,11.17
2018-07-23T17:00:55.857Z,11.57
2018-07-23T17:03:24.156Z,11.83
2018-07-23T17:05:52.483Z,12.33
2018-07-23T17:08:20.685Z,11.93
2018-07-23T17:10:48.968Z,11.23
2018-07-23T17:13:17.238Z,11.70
2018-07-23T17:15:45.560Z,10.73
2018-07-23T17:18:13.764Z,11.43
2018-07-23T17:20:41.933Z,11.03
2018-07-23T17:23:10.152Z,12.20
2018-07-23T17:25:38.463Z,11.90
2018-07-23T17:28:06.693Z,12.43
2018-07-23T17:30:34.861Z,11.97
2018-07-23T17:33:03.095Z,11.90
2018-07-23T17:35:31.442Z,11.43
2018-07-23T17:37:59.598Z,12.83
2018-07-23T17:40:27.856Z,11.90
2018-07-23T17:42:56.157Z,11.90
2018-07-23T17:45:24.397Z,13.50
2018-07-23T17:47:53.637Z,13.10
2018-07-23T17:50:21.860Z,13.83
2018-07-23T17:52:50.002Z,13.63
2018-07-23T17:55:18.225Z,12.93
2018-07-23T17:57:46.387Z,14.07
2018-07-23T18:00:14.561Z,12.90
2018-07-23T18:02:42.777Z,12.83
2018-07-23T18:05:11.203Z,13.60
2018-07-23T18:07:39.460Z,14.63
2018-07-23T18:10:07.703Z,14.17
2018-07-23T18:12:35.918Z,14.37
2018-07-23T18:15:04.473Z,14.13
2018-07-23T18:17:32.707Z,13.87
2018-07-23T18:20:00.858Z,13.93
2018-07-23T18:22:29.038Z,14.43
2018-07-23T18:24:57.217Z,14.43
2018-07-23T18:27:25.385Z,14.03
2018-07-23T18:30:56.570Z,14.40
2018-07-23T18:33:24.720Z,20.57
2018-07-23T18:35:52.872Z,17.93
2018-07-23T18:38:21.175Z,14.80
2018-07-23T18:40:49.242Z,16.30
2018-07-23T18:43:17.409Z,16.50
2018-07-23T18:45:45.678Z,16.37
2018-07-23T18:48:29.098Z,16.47
2018-07-23T18:50:57.245Z,16.77
2018-07-23T18:53:25.456Z,16.83
2018-07-23T18:55:53.638Z,17.10
2018-07-23T18:58:22.097Z,16.73
2018-07-23T19:00:50.299Z,17.00
2018-07-23T19:03:18.457Z,16.33
2018-07-23T19:05:47.077Z,15.67
2018-07-23T19:08:15.328Z,16.10
2018-07-23T19:10:43.501Z,15.77
2018-07-23T19:13:11.681Z,16.63
2018-07-23T19:15:39.854Z,16.53
2018-07-23T19:18:08.122Z,15.57
2018-07-23T19:20:36.355Z,15.33
2018-07-23T19:23:04.616Z,17.77
2018-07-23T19:25:32.853Z,15.23
2018-07-23T19:28:01.012Z,18.57
2018-07-23T19:30:29.285Z,15.03
2018-07-23T19:32:57.715Z,14.73
2018-07-23T19:35:26.072Z,14.57
2018-07-23T19:37:54.225Z,15.00
2018-07-23T19:40:22.458Z,14.03
2018-07-23T19:42:50.682Z,15.90
2018-07-23T19:45:18.906Z,14.90
2018-07-23T19:47:47.168Z,16.63
2018-07-23T19:50:15.305Z,15.03
2018-07-23T19:52:43.566Z,16.50
2018-07-23T19:55:11.777Z,18.15
2018-07-23T19:57:40.082Z,19.50
2018-07-23T20:00:08.163Z,18.10
2018-07-23T20:02:36.398Z,18.87
2018-07-23T20:05:04.563Z,19.13
2018-07-23T20:07:32.749Z,20.37
2018-07-23T20:10:00.914Z,19.30
2018-07-23T20:12:29.078Z,19.67
2018-07-23T20:14:57.249Z,20.40
2018-07-23T20:17:25.490Z,21.73
2018-07-23T20:19:53.714Z,20.03
2018-07-23T20:22:21.885Z,20.07
2018-07-23T20:24:50.050Z,21.37
2018-07-23T20:27:18.198Z,21.67
2018-07-23T20:29:46.430Z,21.07
2018-07-23T20:32:14.681Z,20.53
2018-07-23T20:34:42.888Z,20.93
2018-07-23T20:37:11.191Z,22.33
2018-07-23T20:39:39.505Z,20.70
2018-07-23T20:42:07.670Z,22.17
2018-07-23T20:44:35.864Z,23.07
2018-07-23T20:47:04.038Z,21.00
2018-07-23T20:49:32.210Z,21.03
2018-07-23T20:52:00.378Z,20.80
2018-07-23T20:54:28.616Z,21.03
2018-07-23T20:56:56.932Z,20.27
2018-07-23T20:59:25.198Z,21.67
2018-07-23T21:01:53.431Z,21.73
2018-07-23T21:04:21.752Z,21.27
2018-07-23T21:06:50.030Z,21.13
2018-07-23T21:09:18.321Z,21.27
2018-07-23T21:11:46.598Z,21.03
2018-07-23T21:14:14.857Z,20.83
2018-07-23T21:16:43.230Z,21.70
2018-07-23T21:19:11.305Z,21.90
2018-07-23T21:21:39.579Z,21.77
2018-07-23T21:24:07.862Z,22.40
2018-07-23T21:26:36.226Z,22.13
2018-07-23T21:29:04.484Z,22.23
2018-07-23T21:31:32.770Z,23.13
2018-07-23T21:34:01.001Z,22.73
2018-07-23T21:36:29.194Z,22.50
2018-07-23T21:38:57.521Z,23.70
2018-07-23T21:41:25.887Z,22.53
2018-07-23T21:43:54.244Z,22.90
2018-07-23T21:46:22.458Z,22.23
2018-07-23T21:48:50.777Z,23.23
2018-07-23T21:51:19.116Z,23.17
2018-07-23T21:53:47.419Z,23.50
2018-07-23T21:56:15.775Z,24.23
2018-07-23T21:58:44.003Z,25.73
2018-07-23T22:01:12.205Z,24.37
2018-07-23T22:03:40.437Z,25.40
2018-07-23T22:06:08.626Z,24.20
2018-07-23T22:08:36.838Z,24.90
2018-07-23T22:11:05.285Z,24.70
2018-07-23T22:13:33.547Z,24.63
2018-07-23T22:16:01.799Z,24.33
2018-07-23T22:18:30.046Z,25.77
2018-07-23T22:20:58.205Z,24.17
2018-07-23T22:23:26.418Z,23.73
2018-07-23T22:25:54.813Z,23.17
2018-07-23T22:28:23.078Z,22.63
2018-07-23T22:30:51.325Z,22.23
2018-07-23T22:33:19.556Z,21.97
2018-07-23T22:35:47.869Z,21.90
2018-07-23T22:38:16.047Z,21.17
2018-07-23T22:40:44.291Z,21.70
2018-07-23T22:43:12.632Z,22.53
2018-07-23T22:45:40.896Z,23.50
2018-07-23T22:48:09.102Z,23.47
2018-07-23T22:50:37.330Z,23.30
2018-07-23T22:53:05.566Z,26.43
2018-07-23T22:55:34.044Z,22.37
2018-07-23T22:58:02.229Z,24.50
2018-07-23T23:00:30.392Z,24.67
2018-07-23T23:02:58.781Z,25.13
2018-07-23T23:05:26.993Z,25.37
2018-07-23T23:07:55.220Z,25.20
2018-07-23T23:10:23.493Z,24.60
2018-07-23T23:12:51.751Z,24.83
2018-07-23T23:15:19.941Z,24.50
2018-07-23T23:17:48.185Z,24.00
2018-07-23T23:20:16.490Z,24.23
2018-07-23T23:22:44.741Z,24.53
2018-07-23T23:25:12.901Z,28.10
2018-07-23T23:27:41.127Z,25.30
2018-07-23T23:30:09.311Z,24.67
2018-07-23T23:32:37.537Z,25.03
2018-07-23T23:35:05.912Z,25.07
2018-07-23T23:37:34.077Z,26.93
2018-07-23T23:40:02.254Z,27.57
2018-07-23T23:42:30.532Z,25.03
2018-07-23T23:44:58.673Z,26.80
2018-07-23T23:47:27.022Z,26.30
2018-07-23T23:49:55.146Z,26.00
2018-07-23T23:52:23.391Z,25.57
2018-07-23T23:54:51.598Z,27.83
2018-07-23T23:57:19.754Z,26.97
2018-07-23T23:59:47.995Z,25.03
